createdAt,value
2022-08-08T00:01:00.194Z,15.4
2022-08-08T00:03:00.652Z,15.4
2022-08-08T00:06:04.426Z,15
2022-08-08T00:09:00.576Z,15
2022-08-08T00:12:10.150Z,15
2022-08-08T00:15:04.911Z,14.9
2022-08-08T00:18:04.604Z,14.9
2022-08-08T00:21:00.930Z,14.9
2022-08-08T00:24:00.610Z,14.9
2022-08-08T00:27:00.585Z,14.9
2022-08-08T00:30:00.640Z,14.9
2022-08-08T00:33:00.587Z,14.9
2022-08-08T00:36:00.724Z,14.9
2022-08-08T00:39:00.666Z,14.9
2022-08-08T00:42:13.235Z,14.4
2022-08-08T00:45:00.662Z,14.4
2022-08-08T00:48:06.504Z,14.4
2022-08-08T00:51:00.645Z,14.4
2022-08-08T00:54:15.788Z,14.4
2022-08-08T00:57:00.616Z,14.4
2022-08-08T01:00:00.640Z,14.4
2022-08-08T01:04:04.078Z,14.4
2022-08-08T01:06:02.398Z,14.4
2022-08-08T01:09:00.652Z,14.1
2022-08-08T01:12:00.597Z,14.1
2022-08-08T01:15:00.803Z,13.9
2022-08-08T01:18:02.628Z,13.9
2022-08-08T01:21:00.793Z,13.9
2022-08-08T01:24:13.638Z,13.9
2022-08-08T01:27:00.624Z,13.9
2022-08-08T01:30:03.646Z,13.9
2022-08-08T01:33:00.649Z,13.9
2022-08-08T01:36:01.381Z,13.9
2022-08-08T01:39:00.768Z,13.9
2022-08-08T01:42:00.690Z,13.9
2022-08-08T01:45:00.644Z,13.9
2022-08-08T01:48:16.452Z,13.9
2022-08-08T01:51:00.642Z,13.4
2022-08-08T01:55:18.036Z,13.4
2022-08-08T01:57:00.615Z,13.4
2022-08-08T02:00:03.472Z,13.4
2022-08-08T02:03:00.631Z,13.4
2022-08-08T02:06:00.628Z,13.3
2022-08-08T02:09:00.619Z,13.3
2022-08-08T02:12:01.044Z,13.3
2022-08-08T02:15:01.037Z,13.3
2022-08-08T02:18:01.017Z,13.3
2022-08-08T02:21:08.786Z,13.3
2022-08-08T02:24:00.618Z,13.3
2022-08-08T02:27:01.288Z,13.3
2022-08-08T02:30:00.625Z,13.3
2022-08-08T02:33:00.614Z,13.3
2022-08-08T02:36:05.534Z,12.9
2022-08-08T02:39:01.427Z,12.9
2022-08-08T02:42:07.898Z,12.9
2022-08-08T02:45:00.593Z,12.9
2022-08-08T02:48:00.876Z,12.9
2022-08-08T02:51:00.604Z,12.9
2022-08-08T02:54:00.650Z,12.9
2022-08-08T02:57:00.610Z,12.9
2022-08-08T03:00:27.538Z,12.9
2022-08-08T03:03:00.610Z,12.9
2022-08-08T03:06:00.631Z,12.6
2022-08-08T03:09:00.582Z,12.6
2022-08-08T03:12:05.532Z,12.6
2022-08-08T03:16:05.089Z,12.6
2022-08-08T03:18:07.200Z,12.6
2022-08-08T03:21:00.640Z,12.6
2022-08-08T03:24:02.271Z,12.4
2022-08-08T03:27:00.625Z,12.4
2022-08-08T03:30:00.640Z,12.4
2022-08-08T03:33:54.116Z,12.4
2022-08-08T03:36:00.597Z,12.4
2022-08-08T03:39:15.962Z,12.4
2022-08-08T03:42:38.665Z,12.4
2022-08-08T03:45:02.075Z,12.4
2022-08-08T03:48:00.637Z,12.4
2022-08-08T03:51:00.574Z,12.4
2022-08-08T03:54:00.698Z,12.4
2022-08-08T03:57:00.626Z,12.4
2022-08-08T04:00:11.670Z,12.2
2022-08-08T04:03:02.137Z,12.2
2022-08-08T04:06:00.638Z,12.2
2022-08-08T04:09:11.601Z,12.1
2022-08-08T04:12:01.141Z,12.1
2022-08-08T04:15:00.632Z,12.1
2022-08-08T04:18:00.655Z,12.1
2022-08-08T04:21:01.125Z,12.1
2022-08-08T04:24:04.782Z,12.1
2022-08-08T04:27:00.956Z,12.1
2022-08-08T04:30:17.635Z,12.1
2022-08-08T04:33:00.699Z,12.1
2022-08-08T04:36:00.679Z,12.1
2022-08-08T04:40:04.475Z,12.1
2022-08-08T04:42:00.677Z,12.1
2022-08-08T04:45:00.784Z,12.1
2022-08-08T04:48:00.952Z,12.1
2022-08-08T04:51:00.664Z,12.1
2022-08-08T04:54:42.067Z,12.2
2022-08-08T04:57:00.629Z,12.2
2022-08-08T05:00:01.028Z,12.2
2022-08-08T05:03:00.638Z,12.2
2022-08-08T05:06:01.460Z,12.2
2022-08-08T05:09:05.803Z,12.2
2022-08-08T05:12:00.685Z,12.2
2022-08-08T05:15:00.631Z,12.2
2022-08-08T05:18:00.650Z,12.2
2022-08-08T05:21:00.668Z,12.2
2022-08-08T05:24:08.566Z,12.2
2022-08-08T05:27:00.633Z,12.6
2022-08-08T05:30:01.177Z,12.6
2022-08-08T05:33:03.583Z,12.6
2022-08-08T05:36:00.666Z,12.6
2022-08-08T05:39:00.713Z,12.6
2022-08-08T05:42:00.705Z,12.6
2022-08-08T05:45:24.993Z,12.6
2022-08-08T05:48:09.697Z,12.9
2022-08-08T05:51:15.504Z,12.9
2022-08-08T05:54:43.163Z,12.9
2022-08-08T05:57:00.676Z,13.2
2022-08-08T06:00:23.336Z,13.2
2022-08-08T06:03:00.718Z,13.2
2022-08-08T06:06:01.626Z,13.2
2022-08-08T06:10:01.381Z,13.2
2022-08-08T06:12:00.677Z,13.2
2022-08-08T06:15:00.666Z,13.7
2022-08-08T06:18:22.180Z,13.7
2022-08-08T06:21:11.425Z,13.7
2022-08-08T06:24:04.902Z,13.7
2022-08-08T06:27:00.652Z,14.2
2022-08-08T06:30:02.380Z,14.2
2022-08-08T06:33:02.132Z,14.2
2022-08-08T06:36:09.896Z,14.7
2022-08-08T06:39:00.890Z,14.8
2022-08-08T06:42:03.055Z,14.8
2022-08-08T06:45:01.066Z,15.2
2022-08-08T06:48:02.215Z,15.2
2022-08-08T06:51:07.527Z,15.2
2022-08-08T06:54:00.979Z,15.7
2022-08-08T06:57:00.799Z,15.7
2022-08-08T07:00:12.707Z,15.7
2022-08-08T07:03:00.823Z,16.2
2022-08-08T07:06:02.752Z,16.2
2022-08-08T07:09:01.300Z,16.7
2022-08-08T07:12:00.697Z,16.7
2022-08-08T07:15:01.042Z,16.7
2022-08-08T07:18:35.213Z,16.7
2022-08-08T07:21:04.665Z,17.2
2022-08-08T07:24:04.420Z,17.2
2022-08-08T07:27:05.000Z,17.2
2022-08-08T07:30:12.084Z,17.8
2022-08-08T07:33:01.423Z,17.8
2022-08-08T07:36:00.727Z,17.9
2022-08-08T07:39:01.603Z,17.9
2022-08-08T07:42:05.345Z,18.3
2022-08-08T07:45:00.707Z,18.3
2022-08-08T07:48:00.646Z,18.3
2022-08-08T07:51:01.108Z,18.3
2022-08-08T07:54:03.605Z,18.8
2022-08-08T07:57:02.006Z,18.8
2022-08-08T08:00:00.731Z,18.8
2022-08-08T08:03:00.673Z,18.8
2022-08-08T08:06:00.838Z,19.3
2022-08-08T08:09:00.697Z,19.3
2022-08-08T08:12:00.709Z,19.3
2022-08-08T08:15:04.298Z,19.3
2022-08-08T08:18:00.760Z,19.3
2022-08-08T08:21:00.660Z,19.3
2022-08-08T08:24:03.139Z,19.3
2022-08-08T08:27:03.562Z,20.3
2022-08-08T08:30:00.786Z,20.3
2022-08-08T08:33:00.661Z,20.3
2022-08-08T08:36:21.755Z,20.3
2022-08-08T08:39:00.805Z,20.3
2022-08-08T08:42:00.689Z,20.9
2022-08-08T08:45:00.635Z,20.9
2022-08-08T08:48:01.364Z,20.9
2022-08-08T08:51:00.699Z,20.9
2022-08-08T08:54:01.378Z,21.4
2022-08-08T08:57:00.679Z,21.4
2022-08-08T09:00:08.887Z,21.4
2022-08-08T09:03:00.741Z,21.4
2022-08-08T09:06:00.738Z,21.9
2022-08-08T09:09:00.722Z,21.9
2022-08-08T09:12:06.408Z,21.9
2022-08-08T09:15:00.685Z,21.9
2022-08-08T09:18:01.414Z,21.9
2022-08-08T09:22:05.993Z,22.4
2022-08-08T09:24:00.729Z,22.4
2022-08-08T09:27:00.671Z,22.4
2022-08-08T09:30:00.787Z,22.7
2022-08-08T09:34:15.607Z,22.9
2022-08-08T09:36:00.728Z,22.9
2022-08-08T09:39:00.839Z,22.9
2022-08-08T09:42:22.329Z,22.9
2022-08-08T09:45:08.317Z,22.9
2022-08-08T09:48:12.790Z,22.9
2022-08-08T09:51:04.602Z,22.9
2022-08-08T09:54:15.500Z,23.5
2022-08-08T09:57:00.740Z,23.5
2022-08-08T10:00:38.156Z,23.5
2022-08-08T10:03:00.726Z,23.5
2022-08-08T10:06:00.793Z,23.5
2022-08-08T10:09:00.656Z,23.5
2022-08-08T10:12:36.012Z,23.5
2022-08-08T10:15:00.683Z,23.5
2022-08-08T10:18:13.326Z,23.5
2022-08-08T10:21:08.222Z,24
2022-08-08T10:24:00.676Z,24
2022-08-08T10:27:00.656Z,24
2022-08-08T10:30:00.846Z,24
2022-08-08T10:33:01.166Z,24
2022-08-08T10:36:21.143Z,24
2022-08-08T10:39:00.711Z,24
2022-08-08T10:42:16.505Z,24
2022-08-08T10:45:00.712Z,24
2022-08-08T10:48:00.702Z,24
2022-08-08T10:51:00.693Z,24
2022-08-08T10:54:02.480Z,24
2022-08-08T10:57:00.690Z,24
2022-08-08T11:00:00.677Z,24
2022-08-08T11:03:00.715Z,24
2022-08-08T11:06:01.335Z,24
2022-08-08T11:09:00.625Z,24
2022-08-08T11:12:13.923Z,24
2022-08-08T11:15:00.650Z,24
2022-08-08T11:18:02.520Z,24
2022-08-08T11:21:00.662Z,24.7
2022-08-08T11:24:03.073Z,24.7
2022-08-08T11:27:00.661Z,24.7
2022-08-08T11:30:24.137Z,24.7
2022-08-08T11:33:05.439Z,24.7
2022-08-08T11:36:00.695Z,24.7
2022-08-08T11:39:00.731Z,24.7
2022-08-08T11:42:00.675Z,24.7
2022-08-08T11:45:00.658Z,24.7
2022-08-08T11:48:05.420Z,24.7
2022-08-08T11:51:00.674Z,24.7
2022-08-08T11:54:04.042Z,24.7
2022-08-08T11:57:00.621Z,24.7
2022-08-08T12:00:06.572Z,24.7
2022-08-08T12:03:00.709Z,24.7
2022-08-08T12:06:00.725Z,24.7
2022-08-08T12:09:00.716Z,24.7
2022-08-08T12:12:00.730Z,24.7
2022-08-08T12:15:00.655Z,25
2022-08-08T12:18:00.701Z,25
2022-08-08T12:21:00.617Z,25
2022-08-08T12:24:00.692Z,25
2022-08-08T12:27:00.673Z,25
2022-08-08T12:30:04.386Z,25
2022-08-08T12:33:00.650Z,25
2022-08-08T12:36:00.675Z,25
2022-08-08T12:39:00.811Z,25
2022-08-08T12:42:04.649Z,25
2022-08-08T12:45:00.640Z,25
2022-08-08T12:48:18.102Z,25
2022-08-08T12:51:02.878Z,25.2
2022-08-08T12:54:00.791Z,25.2
2022-08-08T12:57:00.704Z,25.2
2022-08-08T13:00:06.436Z,25.2
2022-08-08T13:03:01.100Z,25.2
2022-08-08T13:06:07.540Z,25.2
2022-08-08T13:09:00.637Z,25.2
2022-08-08T13:12:28.913Z,25.1
2022-08-08T13:15:00.679Z,25.1
2022-08-08T13:18:13.744Z,25.1
2022-08-08T13:21:00.615Z,25.1
2022-08-08T13:24:00.670Z,25.1
2022-08-08T13:27:00.679Z,25.1
2022-08-08T13:30:00.778Z,25.1
2022-08-08T13:33:00.659Z,25.1
2022-08-08T13:36:00.679Z,25.1
2022-08-08T13:39:00.900Z,25.1
2022-08-08T13:42:01.650Z,25.1
2022-08-08T13:45:00.694Z,25.1
2022-08-08T13:48:00.718Z,25.1
2022-08-08T13:51:37.830Z,25.1
2022-08-08T13:54:01.234Z,25.1
2022-08-08T13:57:01.133Z,25.1
2022-08-08T14:00:00.693Z,25.1
2022-08-08T14:03:00.937Z,25.1
2022-08-08T14:06:01.826Z,25.5
2022-08-08T14:09:00.691Z,25.5
2022-08-08T14:12:00.638Z,25.5
2022-08-08T14:15:00.681Z,25.5
2022-08-08T14:18:51.811Z,25.5
2022-08-08T14:21:00.669Z,25.5
2022-08-08T14:24:08.190Z,25.5
2022-08-08T14:27:07.557Z,25.5
2022-08-08T14:30:00.697Z,25.5
2022-08-08T14:33:00.661Z,25.5
2022-08-08T14:36:00.659Z,25.5
2022-08-08T14:39:01.399Z,25.5
2022-08-08T14:42:00.637Z,25.5
2022-08-08T14:45:00.744Z,25.5
2022-08-08T14:48:00.690Z,25.7
2022-08-08T14:51:00.847Z,25.7
2022-08-08T14:54:00.661Z,25.7
2022-08-08T14:57:04.874Z,25.7
2022-08-08T15:00:00.766Z,25.6
2022-08-08T15:03:16.867Z,25.6
2022-08-08T15:06:00.660Z,25.6
2022-08-08T15:09:00.692Z,25.6
2022-08-08T15:12:00.641Z,25.6
2022-08-08T15:15:00.646Z,25.6
2022-08-08T15:18:00.667Z,25.6
2022-08-08T15:21:00.698Z,25.6
2022-08-08T15:24:00.665Z,25.6
2022-08-08T15:27:12.164Z,25.6
2022-08-08T15:30:00.722Z,25.6
2022-08-08T15:33:00.676Z,25.6
2022-08-08T15:36:00.659Z,25.6
2022-08-08T15:39:00.794Z,25.6
2022-08-08T15:42:00.679Z,25.6
2022-08-08T15:45:00.724Z,25.6
2022-08-08T15:48:15.180Z,25.6
2022-08-08T15:51:00.665Z,25.6
2022-08-08T15:54:00.651Z,25.6
2022-08-08T15:57:00.657Z,25.6
2022-08-08T16:00:25.713Z,25.8
2022-08-08T16:03:00.658Z,25.8
2022-08-08T16:06:02.405Z,25.8
2022-08-08T16:15:00.659Z,25.8
2022-08-08T16:18:12.385Z,25.8
2022-08-08T16:21:01.463Z,25.8
2022-08-08T16:24:00.675Z,25.8
2022-08-08T16:27:00.676Z,25.8
2022-08-08T16:30:12.991Z,25.8
2022-08-08T16:33:01.681Z,25.8
2022-08-08T16:36:00.728Z,25.8
2022-08-08T16:39:00.615Z,25.8
2022-08-08T16:42:01.780Z,25.8
2022-08-08T16:45:00.645Z,25.8
2022-08-08T16:48:00.669Z,25.8
2022-08-08T16:51:00.661Z,25.8
2022-08-08T16:57:19.750Z,25.8
2022-08-08T17:00:00.699Z,25.6
2022-08-08T17:03:00.637Z,25.6
2022-08-08T17:06:00.682Z,25.6
2022-08-08T17:09:00.630Z,25.6
2022-08-08T17:12:02.723Z,25.6
2022-08-08T17:15:00.652Z,25.6
2022-08-08T17:18:04.440Z,25.6
2022-08-08T17:21:00.635Z,25.6
2022-08-08T17:24:06.154Z,25.6
2022-08-08T17:27:00.643Z,25.6
2022-08-08T17:30:00.729Z,25.6
2022-08-08T17:36:15.759Z,25.6
2022-08-08T17:39:22.888Z,25.6
2022-08-08T17:42:02.877Z,25.6
2022-08-08T17:45:00.688Z,25.6
2022-08-08T17:48:00.680Z,25.1
2022-08-08T17:51:00.676Z,25.1
2022-08-08T17:54:04.114Z,25.1
2022-08-08T17:57:00.651Z,25
2022-08-08T18:00:02.155Z,24.9
2022-08-08T18:03:12.245Z,24.9
2022-08-08T18:06:00.608Z,24.9
2022-08-08T18:09:00.650Z,24.9
2022-08-08T18:12:00.695Z,24.9
2022-08-08T18:15:00.615Z,24.9
2022-08-08T18:18:28.100Z,24.9
2022-08-08T18:21:00.665Z,24.9
2022-08-08T18:24:00.656Z,24.9
2022-08-08T18:27:00.698Z,24.4
2022-08-08T18:30:00.674Z,24.4
2022-08-08T18:33:00.698Z,24.4
2022-08-08T18:36:03.590Z,24.4
2022-08-08T18:39:00.663Z,24.4
2022-08-08T18:42:04.181Z,24.4
2022-08-08T18:45:00.688Z,24.4
2022-08-08T18:48:00.628Z,24
2022-08-08T18:51:00.630Z,24
2022-08-08T18:54:11.075Z,24
2022-08-08T18:57:00.639Z,23.9
2022-08-08T19:00:00.638Z,23.9
2022-08-08T19:03:06.505Z,23.9
2022-08-08T19:06:00.636Z,23.6
2022-08-08T19:09:00.641Z,23.6
2022-08-08T19:12:00.624Z,23.6
2022-08-08T19:15:00.589Z,23.6
2022-08-08T19:18:47.799Z,23.6
2022-08-08T19:21:00.669Z,23.6
2022-08-08T19:24:00.613Z,23.2
2022-08-08T19:27:00.653Z,23.2
2022-08-08T19:30:00.656Z,23.2
2022-08-08T19:33:01.090Z,23.2
2022-08-08T19:36:09.131Z,23.2
2022-08-08T19:39:00.628Z,23.2
2022-08-08T19:42:00.634Z,23.2
2022-08-08T19:45:07.383Z,22.7
2022-08-08T19:48:00.651Z,22.7
2022-08-08T19:51:01.448Z,22.7
2022-08-08T19:54:00.634Z,22.7
2022-08-08T19:57:07.473Z,22.7
2022-08-08T20:00:00.786Z,22.7
2022-08-08T20:03:00.617Z,22.7
2022-08-08T20:06:16.649Z,22.7
2022-08-08T20:09:00.580Z,22.2
2022-08-08T20:12:00.590Z,22.2
2022-08-08T20:15:00.613Z,22.2
2022-08-08T20:18:00.651Z,22.2
2022-08-08T20:21:00.646Z,22.2
2022-08-08T20:24:01.285Z,22.2
2022-08-08T20:27:00.613Z,22.2
2022-08-08T20:30:01.645Z,21.7
2022-08-08T20:33:00.893Z,21.7
2022-08-08T20:36:08.661Z,21.7
2022-08-08T20:39:00.873Z,21.7
2022-08-08T20:42:00.626Z,21.4
2022-08-08T20:45:00.792Z,21.4
2022-08-08T20:48:01.625Z,21.2
2022-08-08T20:51:00.918Z,21.2
2022-08-08T20:54:10.564Z,21.2
2022-08-08T20:57:16.847Z,21.2
2022-08-08T21:00:00.636Z,21.2
2022-08-08T21:03:00.798Z,21.2
2022-08-08T21:06:00.623Z,21.2
2022-08-08T21:09:00.620Z,20.7
2022-08-08T21:12:03.575Z,20.7
2022-08-08T21:15:06.800Z,20.7
2022-08-08T21:18:00.937Z,20.7
2022-08-08T21:21:00.606Z,20.7
2022-08-08T21:24:07.260Z,20.7
2022-08-08T21:27:00.583Z,20.7
2022-08-08T21:30:07.831Z,20.7
2022-08-08T21:33:00.597Z,20.4
2022-08-08T21:36:20.509Z,20.4
2022-08-08T21:39:04.341Z,20.4
2022-08-08T21:42:00.627Z,20.4
2022-08-08T21:45:21.113Z,20.4
2022-08-08T21:48:28.956Z,20.4
2022-08-08T21:51:00.583Z,20.4
2022-08-08T21:54:52.390Z,20.4
2022-08-08T21:57:00.649Z,20.4
2022-08-08T22:00:04.847Z,20.4
2022-08-08T22:03:01.629Z,20.4
2022-08-08T22:06:00.646Z,20.4
2022-08-08T22:09:02.689Z,20.4
2022-08-08T22:12:09.083Z,20.4
2022-08-08T22:15:00.616Z,20.4
2022-08-08T22:18:00.613Z,20.4
2022-08-08T22:21:11.017Z,20.4
2022-08-08T22:24:00.631Z,20.4
2022-08-08T22:27:03.240Z,20.4
2022-08-08T22:30:03.598Z,20.4
2022-08-08T22:33:00.584Z,19.6
2022-08-08T22:36:12.193Z,19.6
2022-08-08T22:39:00.583Z,19.6
2022-08-08T22:42:00.622Z,19.6
2022-08-08T22:45:01.052Z,19.6
2022-08-08T22:48:00.667Z,19.6
2022-08-08T22:51:00.644Z,19.1
2022-08-08T22:54:58.617Z,19.1
2022-08-08T22:57:00.653Z,19.1
2022-08-08T23:00:00.632Z,19.1
2022-08-08T23:03:00.693Z,19.1
2022-08-08T23:06:00.641Z,19.1
2022-08-08T23:09:00.820Z,19.1
2022-08-08T23:12:40.196Z,19.1
2022-08-08T23:18:00.606Z,19.1
2022-08-08T23:21:00.635Z,19.1
2022-08-08T23:24:00.576Z,19.1
2022-08-08T23:27:00.585Z,18.4
2022-08-08T23:30:00.626Z,18.4
2022-08-08T23:33:00.625Z,18.4
2022-08-08T23:36:08.705Z,18.4
2022-08-08T23:39:00.611Z,18.4
2022-08-08T23:42:00.633Z,18.4
2022-08-08T23:45:00.598Z,18.4
2022-08-08T23:51:00.768Z,18.4
2022-08-08T23:54:43.935Z,18.4
2022-08-08T23:57:00.592Z,18.1
